Tuesday, January 23, 2018, 6:58 PM EST
Back to Local

KDDH, Bennington Morse State Airport

Location: Bennington, VT, United States Lat: 42.883
Local Time: 6:58 PM EST (23:58 GMT) Lon: -73.25
Time Zone: US/Eastern Elev: 826 ft

Show me the last for .
Show Decoded

2018-01-23 18:32 METAR KDDH 232332Z AUTO 28013G25KT 6SM RA BKN014 OVC022 04/02 A2959 RMK AO2 PK
                 WND 31028/2321 P0008 T00440017 =
2018-01-23 18:21 METAR KDDH 232321Z AUTO 29017G28KT 6SM -RA BR SCT012 BKN021 OVC037 05/03 A2958
                 RMK AO2 PK WND 31028/2321 P0005 T00500028 =
2018-01-23 17:54 METAR KDDH 232254Z AUTO 22006KT 5SM -RA BR BKN043 BKN050 OVC060 07/06 A2952 RMK
                 AO2 RAB2156E25B39 PRESRR SLP000 P0001 T00720056 =
2018-01-23 17:49 METAR KDDH 232249Z AUTO 23003KT 4SM -RA BR BKN043 BKN050 OVC070 07/06 A2952 RMK
                 AO2 RAB2156E25B39 P0001 =
2018-01-23 17:32 METAR KDDH 232232Z AUTO 11005KT 2 1/2SM BR FEW001 BKN060 OVC070 07/06 A2950 RMK
                 AO2 RAB2156E25 P0001 T00670056 =
2018-01-23 17:26 METAR KDDH 232226Z AUTO 12003KT 4SM BR FEW045 BKN060 OVC075 07/06 A2950 RMK AO2
                 RAB2156E25 P0001 T00670056 =
2018-01-23 17:16 METAR KDDH 232216Z AUTO 12005KT 1SM -RA BR FEW046 OVC060 06/05 A2949 RMK AO2
                 RAB2156 P0001 T00610050 =
2018-01-23 17:09 METAR KDDH 232209Z AUTO 00000KT 2SM -RA BR FEW027 BKN055 OVC070 06/05 A2950 RMK
                 AO2 RAB2156 P0001 T00610050 =
2018-01-23 17:01 METAR KDDH 232201Z AUTO 00000KT 3SM -RA BR FEW002 FEW028 OVC050 06/05 A2950 RMK
                 AO2 RAB2156 P0001 T00610050 =
2018-01-23 16:54 METAR KDDH 232154Z AUTO 00000KT 2 1/2SM BR SCT002 SCT028 OVC055 07/06 A2950 RMK
                 AO2 SLP993 T00670056 =
2018-01-23 16:51 METAR KDDH 232151Z AUTO 00000KT 2SM BR SCT002 BKN027 OVC075 06/05 A2951 RMK AO2
                 =
2018-01-23 16:43 METAR KDDH 232143Z AUTO 19004KT 1/2SM FG BKN002 BKN027 OVC110 07/06 A2950 RMK
                 AO2 T00670056 =
2018-01-23 16:36 METAR KDDH 232136Z AUTO 23003KT 3/4SM BR SCT003 BKN110 07/06 A2949 RMK AO2 VIS
                 1/4V5 T00670056 =
2018-01-23 16:31 METAR KDDH 232131Z AUTO 00000KT 2 1/2SM BR SCT003 SCT060 OVC100 07/06 A2949 RMK
                 AO2 T00720056 =
2018-01-23 15:54 METAR KDDH 232054Z AUTO 20003KT 5SM BR BKN002 BKN060 08/07 A2949 RMK AO2
                 RAB02E12 SLP990 P0000 60002 T00780067 55014 =
2018-01-23 15:52 METAR KDDH 232052Z AUTO 19003KT 2SM BR BKN002 BKN065 08/07 A2949 RMK AO2
                 RAB02E12 P0000 =
2018-01-23 15:47 METAR KDDH 232047Z AUTO 16003KT 1/2SM FG BKN002 BKN060 OVC085 08/07 A2949 RMK
                 AO2 RAB02E12 P0000 T00780067 =
2018-01-23 15:37 METAR KDDH 232037Z AUTO 00000KT 1/4SM FG SCT003 BKN065 BKN080 08/07 A2950 RMK
                 AO2 RAB02E12 P0000 T00830067 =
2018-01-23 15:33 METAR KDDH 232033Z AUTO 01003KT 1 1/2SM BR SCT003 BKN065 BKN080 08/06 A2950 RMK
                 AO2 RAB02E12 P0000 T00830061 =
2018-01-23 15:26 METAR KDDH 232026Z AUTO 01003KT 10SM FEW003 SCT065 BKN080 09/07 A2949 RMK AO2
                 RAB02E12 P0000 T00890067 =
2018-01-23 14:54 METAR KDDH 231954Z AUTO 00000KT 10SM OVC070 08/07 A2948 RMK AO2 RAB27E41 SLP987
                 P0000 T00830067 =
2018-01-23 14:28 METAR KDDH 231928Z AUTO 10004KT 10SM -RA SCT004 OVC065 08/06 A2949 RMK AO2 RAB27
                 P0000 T00780061 =
2018-01-23 14:09 METAR KDDH 231909Z AUTO 00000KT 10SM OVC005 07/06 A2951 RMK AO2 T00720056 =
2018-01-23 13:54 METAR KDDH 231854Z AUTO 14003KT 10SM BKN004 OVC040 07/06 A2952 RMK AO2 RAE50
                 SLP998 P0002 T00670056 =
2018-01-23 13:22 METAR KDDH 231822Z AUTO 28010KT 8SM -RA BKN004 BKN034 OVC047 08/06 A2954 RMK AO2
                 P0001 T00780061 =
2018-01-23 13:03 METAR KDDH 231803Z AUTO 16003KT 3SM -RA BR FEW009 BKN039 OVC048 08/07 A2953 RMK
                 AO2 P0001 T00830072 =
2018-01-23 12:56 METAR KDDH 231756Z AUTO 00000KT 1 1/4SM RA BR FEW009 BKN031 OVC043 08/07 A2953
                 RMK AO2 P0001 T00830072 =
2018-01-23 12:54 METAR KDDH 231754Z AUTO 00000KT 1SM RA BR FEW011 BKN026 OVC043 08/07 A2954 RMK
                 AO2 SLP004 P0020 60078 T00830072 10100 20072 56038 =
2018-01-23 12:33 METAR KDDH 231733Z AUTO 20005KT 1 3/4SM -RA BR SCT017 OVC023 08/07 A2954 RMK AO2
                 P0009 T00830072 =
2018-01-23 12:14 METAR KDDH 231714Z AUTO 00000KT 1/2SM RA FG BKN019 OVC025 08/07 A2954 RMK AO2
                 P0005 T00780067 =
2018-01-23 11:54 METAR KDDH 231654Z AUTO 35004KT 1 3/4SM RA BR BKN026 OVC033 08/07 A2956 RMK AO2
                 VIS 1 1/4V2 1/2 SLP011 P0015 T00830067 =
2018-01-23 11:40 METAR KDDH 231640Z AUTO 00000KT 1 3/4SM RA BR FEW024 OVC035 08/07 A2957 RMK AO2
                 PRESFR P0012 T00830067 =
2018-01-23 11:22 METAR KDDH 231622Z AUTO 08005KT 4SM -RA BR FEW022 BKN045 OVC065 08/07 A2959 RMK
                 AO2 P0008 T00830067 =
2018-01-23 11:13 METAR KDDH 231613Z AUTO 02003KT 2 1/2SM RA BR FEW030 BKN055 OVC070 08/06 A2959
                 RMK AO2 PRESFR P0005 T00830061 =
2018-01-23 10:54 METAR KDDH 231554Z AUTO 00000KT 3SM RA SCT028 BKN048 OVC070 09/06 A2963 RMK AO2
                 PRESFR SLP036 P0016 T00890061 =
2018-01-23 10:50 METAR KDDH 231550Z AUTO 17007G16KT 4SM RA SCT028 BKN048 OVC060 09/06 A2965 RMK
                 AO2 P0015 =
2018-01-23 10:35 METAR KDDH 231535Z AUTO 17014G20KT 2SM RA SCT028 BKN050 OVC065 09/07 A2966 RMK
                 AO2 P0011 T00940067 =
2018-01-23 09:54 METAR KDDH 231454Z AUTO 15013G18KT 5SM RA OVC065 10/07 A2966 RMK AO2 SLP048
                 P0006 60027 T01000067 56035 =
2018-01-23 08:54 METAR KDDH 231354Z AUTO 16008KT 5SM -RA FEW029 SCT055 OVC070 08/06 A2970 RMK AO2
                 SLP060 P0010 T00830056 =
2018-01-23 07:54 METAR KDDH 231254Z AUTO 16012G19KT 6SM -RA OVC065 08/05 A2972 RMK AO2 SLP067
                 P0011 T00780050 =
2018-01-23 07:08 METAR KDDH 231208Z AUTO 15013G18KT 5SM RA SCT014 BKN060 OVC075 08/04 A2974 RMK
                 AO2 PRESFR P0003 T00780044 =
2018-01-23 06:54 METAR KDDH 231154Z AUTO 17008G18KT 8SM -RA BKN014 OVC075 07/04 A2977 RMK AO2
                 RAB32 SLP085 P0001 60001 70009 T00720044 10078 20044 57028 =
2018-01-23 06:29 METAR KDDH 231129Z AUTO 15009KT 10SM BKN014 OVC031 08/04 A2980 RMK AO2 T00780044
                 =
2018-01-23 05:54 METAR KDDH 231054Z AUTO 15010G15KT 10SM BKN015 OVC100 07/04 A2980 RMK AO2 SLP096
                 T00720039 =
2018-01-23 05:22 METAR KDDH 231022Z AUTO 16012KT 10SM BKN015 BKN080 OVC110 07/04 A2982 RMK AO2
                 T00720039 =
2018-01-23 04:54 METAR KDDH 230954Z AUTO 15014G22KT 10SM FEW080 BKN120 07/04 A2982 RMK AO2 PK WND
                 18028/0927 RAB41E50 PRESFR SLP103 P0000 T00720039 =
2018-01-23 03:54 METAR KDDH 230854Z AUTO 17013G23KT 10SM SCT100 07/03 A2985 RMK AO2 SLP114
                 T00670033 58033 =
2018-01-23 03:29 METAR KDDH 230829Z AUTO 16011G21KT 10SM FEW012 SCT021 06/03 A2987 RMK AO2
                 T00610028 =
2018-01-23 03:01 METAR KDDH 230801Z AUTO 15013G19KT 10SM SCT016 BKN021 06/02 A2990 RMK AO2
                 T00610022 =
2018-01-23 02:54 METAR KDDH 230754Z AUTO 15007KT 10SM FEW016 SCT022 06/02 A2991 RMK AO2 SLP133
                 T00560017 =
2018-01-23 01:54 METAR KDDH 230654Z AUTO 10SM FEW080 BKN100 05/01 A2993 RMK AO2 SLP139 T00500006
                 =
2018-01-23 00:54 METAR KDDH 230554Z AUTO VRB03KT 10SM OVC090 05/01 A2996 RMK AO2 SLP149 60002
                 T00500006 10050 20028 58033 =
2018-01-23 00:29 METAR KDDH 230529Z AUTO 00000KT 10SM SCT019 BKN085 04/00 A2998 RMK AO2 T00390000
                 =
2018-01-22 23:54 METAR KDDH 230454Z AUTO 04007KT 350V070 10SM OVC018 03/M01 A3001 RMK AO2 SLP169
                 T00331006 400611011 =
2018-01-22 22:54 METAR KDDH 230354Z AUTO 07013G20KT 10SM OVC020 03/M01 A3002 RMK AO2 SLP173
                 T00281011 =
2018-01-22 21:54 METAR KDDH 230254Z AUTO 09008G18KT 10SM OVC020 03/M01 A3006 RMK AO2 RAE07 SLP184
                 P0000 60002 T00281011 58017 =
2018-01-22 20:54 METAR KDDH 230154Z AUTO VRB05KT 10SM -RA OVC021 03/M01 A3007 RMK AO2 RAB0059
                 SLP190 P0001 T00331006 =
2018-01-22 19:54 METAR KDDH 230054Z AUTO 05006KT 10SM OVC021 03/M01 A3009 RMK AO2 RAE45 SLP197
                 P0001 T00281006 =

Support USWX by starting your Amazon purchase here.